createdAt,value
2019-04-16T00:01:15.882Z,10.57
2019-04-16T00:03:53.638Z,9.37
2019-04-16T00:06:37.239Z,10.47
2019-04-16T00:09:15.041Z,8.83
2019-04-16T00:11:47.854Z,10.30
2019-04-16T00:14:23.163Z,11.23
2019-04-16T00:16:53.066Z,9.67
2019-04-16T00:19:23.785Z,10.50
2019-04-16T00:21:59.269Z,10.73
2019-04-16T00:24:31.702Z,10.47
2019-04-16T00:27:01.501Z,10.40
2019-04-16T00:29:33.655Z,11.27
2019-04-16T00:32:09.127Z,12.27
2019-04-16T00:34:38.538Z,10.70
2019-04-16T00:37:08.742Z,10.00
2019-04-16T00:39:41.781Z,10.30
2019-04-16T00:42:13.019Z,10.57
2019-04-16T00:44:46.037Z,10.50
2019-04-16T00:47:17.814Z,10.40
2019-04-16T00:49:50.025Z,11.07
2019-04-16T00:52:21.398Z,10.90
2019-04-16T00:54:51.602Z,11.00
2019-04-16T00:57:22.443Z,11.07
2019-04-16T00:59:56.339Z,10.97
2019-04-16T01:02:25.435Z,11.07
2019-04-16T01:04:57.966Z,10.70
2019-04-16T01:07:29.097Z,10.63
2019-04-16T01:10:00.291Z,11.13
2019-04-16T01:12:31.131Z,10.90
2019-04-16T01:15:03.441Z,9.20
2019-04-16T01:17:36.093Z,11.40
2019-04-16T01:20:11.923Z,11.20
2019-04-16T01:22:40.701Z,9.27
2019-04-16T01:25:11.526Z,10.77
2019-04-16T01:27:44.241Z,10.93
2019-04-16T01:30:15.670Z,11.47
2019-04-16T01:32:58.897Z,9.40
2019-04-16T01:35:31.206Z,10.90
2019-04-16T01:38:22.070Z,10.33
2019-04-16T01:41:04.039Z,11.20
2019-04-16T01:43:35.855Z,10.90
2019-04-16T01:46:07.194Z,10.97
2019-04-16T01:48:38.986Z,11.20
2019-04-16T01:51:12.629Z,11.60
2019-04-16T01:53:43.253Z,11.30
2019-04-16T01:56:13.408Z,12.10
2019-04-16T01:58:44.545Z,11.20
2019-04-16T02:01:14.862Z,11.30
2019-04-16T02:03:48.660Z,10.00
2019-04-16T02:06:19.558Z,11.13
2019-04-16T02:08:50.863Z,10.87
2019-04-16T02:11:21.697Z,10.83
2019-04-16T02:13:53.030Z,11.43
2019-04-16T02:16:26.016Z,11.10
2019-04-16T02:19:00.801Z,11.30
2019-04-16T02:21:27.523Z,10.57
2019-04-16T02:23:58.514Z,10.63
2019-04-16T02:26:28.426Z,11.10
2019-04-16T02:28:58.910Z,9.63
2019-04-16T02:31:31.846Z,10.97
2019-04-16T02:34:02.673Z,12.30
2019-04-16T02:36:32.749Z,12.17
2019-04-16T02:39:03.803Z,11.80
2019-04-16T02:41:35.013Z,9.90
2019-04-16T02:44:05.139Z,11.33
2019-04-16T02:46:35.334Z,9.70
2019-04-16T02:49:05.418Z,11.73
2019-04-16T02:51:41.253Z,11.30
2019-04-16T02:54:13.838Z,11.60
2019-04-16T02:56:52.161Z,10.00
2019-04-16T02:59:46.004Z,11.93
2019-04-16T03:02:31.005Z,12.07
2019-04-16T03:05:05.189Z,11.57
2019-04-16T03:07:35.911Z,10.50
2019-04-16T03:10:12.036Z,11.63
2019-04-16T03:12:39.725Z,9.87
2019-04-16T03:15:11.622Z,11.13
2019-04-16T03:17:44.432Z,11.43
2019-04-16T03:20:17.554Z,12.40
2019-04-16T03:22:48.393Z,11.90
2019-04-16T03:25:17.638Z,11.20
2019-04-16T03:27:51.470Z,9.33
2019-04-16T03:30:23.261Z,12.10
2019-04-16T03:32:53.529Z,11.17
2019-04-16T03:35:26.614Z,12.40
2019-04-16T03:37:55.649Z,12.43
2019-04-16T03:40:26.054Z,10.80
2019-04-16T03:42:59.391Z,11.90
2019-04-16T03:45:29.324Z,11.80
2019-04-16T03:47:59.941Z,12.83
2019-04-16T03:50:32.078Z,12.00
2019-04-16T03:53:03.989Z,12.43
2019-04-16T03:55:36.006Z,11.47
2019-04-16T03:58:07.343Z,10.40
2019-04-16T04:00:43.761Z,11.10
2019-04-16T04:03:10.514Z,12.90
2019-04-16T04:05:41.644Z,12.10
2019-04-16T04:08:16.071Z,12.73
2019-04-16T04:10:43.509Z,11.43
2019-04-16T04:13:17.254Z,11.87
2019-04-16T04:15:45.558Z,10.60
2019-04-16T04:18:16.728Z,12.30
2019-04-16T04:20:50.596Z,12.07
2019-04-16T04:23:20.417Z,10.40
2019-04-16T04:25:50.265Z,12.13
2019-04-16T04:28:22.653Z,11.37
2019-04-16T04:30:53.437Z,11.77
2019-04-16T04:33:42.796Z,11.53
2019-04-16T04:36:13.363Z,12.37
2019-04-16T04:38:43.560Z,12.73
2019-04-16T04:41:16.638Z,11.20
2019-04-16T04:43:46.761Z,12.00
2019-04-16T04:46:16.606Z,10.53
2019-04-16T04:48:46.342Z,12.80
2019-04-16T04:51:17.054Z,10.33
2019-04-16T04:53:50.333Z,12.07
2019-04-16T04:56:20.456Z,10.97
2019-04-16T04:58:50.669Z,12.53
2019-04-16T05:01:21.188Z,11.53
2019-04-16T05:04:09.869Z,10.63
2019-04-16T05:06:47.577Z,11.53
2019-04-16T05:09:18.813Z,12.43
2019-04-16T05:11:51.759Z,13.07
2019-04-16T05:14:24.961Z,12.57
2019-04-16T05:16:54.729Z,11.07
2019-04-16T05:19:25.465Z,11.97
2019-04-16T05:21:55.758Z,10.97
2019-04-16T05:24:28.838Z,12.20
2019-04-16T05:26:58.683Z,11.47
2019-04-16T05:29:29.486Z,12.80
2019-04-16T05:31:59.573Z,11.33
2019-04-16T05:34:34.612Z,12.07
2019-04-16T05:37:04.044Z,12.83
2019-04-16T05:39:34.236Z,10.97
2019-04-16T05:42:05.783Z,12.67
2019-04-16T05:44:36.621Z,13.50
2019-04-16T05:47:07.378Z,12.70
2019-04-16T05:49:38.500Z,14.43
2019-04-16T05:52:09.333Z,12.53
2019-04-16T05:54:50.762Z,12.70
2019-04-16T05:57:25.635Z,12.73
2019-04-16T05:59:54.537Z,13.20
2019-04-16T06:02:34.997Z,10.63
2019-04-16T06:05:05.369Z,12.30
2019-04-16T06:07:37.760Z,12.87
2019-04-16T06:10:07.849Z,12.97
2019-04-16T06:12:42.412Z,12.93
2019-04-16T06:15:35.918Z,12.57
2019-04-16T06:18:18.311Z,13.07
2019-04-16T06:21:06.715Z,13.20
2019-04-16T06:23:39.396Z,13.90
2019-04-16T06:26:14.675Z,11.10
2019-04-16T06:28:55.036Z,13.43
2019-04-16T06:31:25.117Z,12.93
2019-04-16T06:33:57.860Z,12.87
2019-04-16T06:36:34.075Z,12.70
2019-04-16T06:39:08.175Z,12.83
2019-04-16T06:41:47.674Z,12.60
2019-04-16T06:44:20.129Z,12.97
2019-04-16T06:46:55.501Z,12.83
2019-04-16T06:49:39.573Z,11.00
2019-04-16T06:52:18.300Z,12.80
2019-04-16T06:54:53.504Z,12.43
2019-04-16T06:57:27.034Z,11.50
2019-04-16T07:00:14.171Z,12.20
2019-04-16T07:03:02.334Z,12.70
2019-04-16T07:05:32.991Z,13.47
2019-04-16T07:08:17.774Z,12.57
2019-04-16T07:10:59.450Z,12.77
2019-04-16T07:13:29.757Z,12.67
2019-04-16T07:16:02.609Z,13.73
2019-04-16T07:18:32.586Z,13.10
2019-04-16T07:21:04.309Z,10.87
2019-04-16T07:23:36.123Z,13.40
2019-04-16T07:26:13.525Z,10.97
2019-04-16T07:28:47.852Z,13.33
2019-04-16T07:31:32.884Z,12.80
2019-04-16T07:33:53.985Z,12.70
2019-04-16T07:36:31.506Z,13.27
2019-04-16T07:39:06.210Z,11.57
2019-04-16T07:41:50.909Z,13.57
2019-04-16T07:44:39.218Z,11.00
2019-04-16T07:47:20.054Z,11.93
2019-04-16T07:49:55.930Z,10.87
2019-04-16T07:52:38.993Z,12.73
2019-04-16T07:55:16.408Z,12.90
2019-04-16T07:57:46.405Z,11.13
2019-04-16T08:00:17.431Z,12.20
2019-04-16T08:02:50.671Z,12.50
2019-04-16T08:05:21.991Z,11.57
2019-04-16T08:07:52.864Z,12.47
2019-04-16T08:10:24.893Z,12.83
2019-04-16T08:13:00.480Z,12.73
2019-04-16T08:15:29.281Z,12.90
2019-04-16T08:17:59.054Z,11.03
2019-04-16T08:20:29.693Z,12.23
2019-04-16T08:23:01.425Z,11.63
2019-04-16T08:25:34.044Z,13.37
2019-04-16T08:28:07.416Z,11.63
2019-04-16T08:30:39.434Z,12.40
2019-04-16T08:33:10.654Z,12.60
2019-04-16T08:35:40.655Z,13.40
2019-04-16T08:38:11.721Z,12.27
2019-04-16T08:40:45.942Z,12.83
2019-04-16T08:43:15.427Z,10.73
2019-04-16T08:45:45.323Z,13.60
2019-04-16T08:48:18.387Z,12.87
2019-04-16T08:50:49.494Z,10.93
2019-04-16T08:53:19.474Z,12.40
2019-04-16T08:55:50.185Z,13.80
2019-04-16T08:58:20.093Z,12.77
2019-04-16T09:00:51.334Z,12.67
2019-04-16T09:03:21.386Z,11.30
2019-04-16T09:05:51.585Z,13.10
2019-04-16T09:08:25.749Z,13.53
2019-04-16T09:10:55.381Z,13.33
2019-04-16T09:13:28.187Z,14.10
2019-04-16T09:15:59.093Z,13.43
2019-04-16T09:18:40.045Z,14.00
2019-04-16T09:21:11.584Z,11.33
2019-04-16T09:23:43.238Z,13.10
2019-04-16T09:26:18.623Z,13.50
2019-04-16T09:28:51.065Z,14.00
2019-04-16T09:31:34.958Z,14.07
2019-04-16T09:34:16.113Z,14.00
2019-04-16T09:37:05.739Z,14.27
2019-04-16T09:39:50.200Z,13.67
2019-04-16T09:42:20.964Z,14.07
2019-04-16T09:44:51.117Z,14.00
2019-04-16T09:47:21.617Z,14.50
2019-04-16T09:49:52.648Z,14.40
2019-04-16T09:52:23.449Z,12.93
2019-04-16T09:54:54.310Z,13.70
2019-04-16T09:57:24.770Z,14.53
2019-04-16T09:59:58.875Z,13.93
2019-04-16T10:02:31.723Z,13.97
2019-04-16T10:05:02.525Z,14.23
2019-04-16T10:07:32.315Z,14.37
2019-04-16T10:10:03.076Z,14.27
2019-04-16T10:12:34.588Z,15.13
2019-04-16T10:15:07.377Z,15.10
2019-04-16T10:17:40.069Z,15.17
2019-04-16T10:20:10.509Z,15.40
2019-04-16T10:22:41.530Z,13.70
2019-04-16T10:25:15.092Z,14.33
2019-04-16T10:27:53.333Z,13.70
2019-04-16T10:30:25.824Z,14.03
2019-04-16T10:32:58.144Z,15.07
2019-04-16T10:35:29.538Z,14.60
2019-04-16T10:38:01.991Z,14.20
2019-04-16T10:40:34.447Z,14.50
2019-04-16T10:43:22.390Z,14.20
2019-04-16T10:45:58.122Z,15.20
2019-04-16T10:48:30.676Z,14.60
2019-04-16T10:51:08.657Z,14.77
2019-04-16T10:53:43.711Z,14.90
2019-04-16T10:56:34.357Z,15.07
2019-04-16T10:59:08.282Z,14.23
2019-04-16T11:01:39.194Z,14.80
2019-04-16T11:04:27.446Z,14.87
2019-04-16T11:07:09.269Z,13.87
2019-04-16T11:09:40.605Z,14.87
2019-04-16T11:12:11.047Z,15.37
2019-04-16T11:14:41.918Z,15.63
2019-04-16T11:17:13.012Z,14.53
2019-04-16T11:19:45.868Z,15.17
2019-04-16T11:22:16.705Z,14.43
2019-04-16T11:24:46.486Z,15.03
2019-04-16T11:27:18.989Z,15.33
2019-04-16T11:29:50.057Z,14.73
2019-04-16T11:32:22.715Z,13.50
2019-04-16T11:34:53.016Z,12.30
2019-04-16T11:37:23.324Z,11.03
2019-04-16T11:39:54.258Z,12.00
2019-04-16T11:42:24.217Z,12.30
2019-04-16T11:44:55.230Z,12.07
2019-04-16T11:47:28.014Z,11.50
2019-04-16T11:49:57.116Z,11.93
2019-04-16T11:52:27.856Z,11.77
2019-04-16T11:55:00.676Z,11.60
2019-04-16T11:57:33.248Z,11.43
2019-04-16T12:00:08.435Z,11.27
2019-04-16T12:02:40.744Z,11.67
2019-04-16T12:05:15.382Z,10.07
2019-04-16T12:08:01.588Z,10.50
2019-04-16T12:10:44.225Z,10.50
2019-04-16T12:13:22.707Z,11.83
2019-04-16T12:16:01.042Z,11.70
2019-04-16T12:18:33.029Z,11.33
2019-04-16T12:21:17.633Z,11.30
2019-04-16T12:23:55.779Z,10.70
2019-04-16T12:26:39.118Z,9.80
2019-04-16T12:29:16.377Z,10.90
2019-04-16T12:32:05.207Z,9.17
2019-04-16T12:34:51.091Z,10.57
2019-04-16T12:37:22.889Z,10.40
2019-04-16T12:39:55.711Z,10.13
2019-04-16T12:42:34.590Z,9.53
2019-04-16T12:45:11.493Z,10.70
2019-04-16T12:47:49.592Z,9.07
2019-04-16T12:50:38.320Z,8.73
2019-04-16T12:53:12.558Z,9.07
2019-04-16T12:55:50.493Z,8.80
2019-04-16T12:58:38.233Z,8.43
2019-04-16T13:01:24.527Z,9.07
2019-04-16T13:03:57.223Z,9.93
2019-04-16T13:06:32.520Z,9.30
2019-04-16T13:09:13.165Z,9.43
2019-04-16T13:12:08.469Z,8.20
2019-04-16T13:14:43.463Z,7.33
2019-04-16T13:17:23.667Z,7.90
2019-04-16T13:20:07.008Z,8.00
2019-04-16T13:22:53.692Z,9.43
2019-04-16T13:25:29.317Z,8.37
2019-04-16T13:28:00.164Z,8.47
2019-04-16T13:30:30.264Z,7.83
2019-04-16T13:33:01.407Z,8.07
2019-04-16T13:35:34.246Z,7.73
2019-04-16T13:38:09.484Z,6.80
2019-04-16T13:40:41.442Z,7.57
2019-04-16T13:43:14.705Z,7.17
2019-04-16T13:45:45.457Z,7.00
2019-04-16T13:48:27.604Z,6.70
2019-04-16T13:51:00.841Z,7.17
2019-04-16T13:53:38.158Z,7.03
2019-04-16T13:56:21.417Z,7.00
2019-04-16T13:59:08.938Z,7.80
2019-04-16T14:01:46.054Z,8.30
2019-04-16T14:04:16.641Z,7.80
2019-04-16T14:06:47.778Z,8.13
2019-04-16T14:09:18.641Z,7.70
2019-04-16T14:11:51.304Z,8.17
2019-04-16T14:14:22.632Z,8.23
2019-04-16T14:16:52.578Z,8.17
2019-04-16T14:19:22.370Z,8.70
2019-04-16T14:21:52.213Z,8.10
2019-04-16T14:24:21.994Z,9.50
2019-04-16T14:26:52.065Z,8.87
2019-04-16T14:29:24.924Z,9.10
2019-04-16T14:31:56.015Z,9.00
2019-04-16T14:34:31.565Z,9.43
2019-04-16T14:37:01.866Z,8.50
2019-04-16T14:39:44.496Z,8.43
2019-04-16T14:42:19.149Z,8.70
2019-04-16T14:44:51.367Z,10.13
2019-04-16T14:47:22.881Z,9.77
2019-04-16T14:49:53.649Z,10.07
2019-04-16T14:52:23.401Z,9.93
2019-04-16T14:54:57.864Z,10.23
2019-04-16T14:57:28.630Z,10.43
2019-04-16T15:00:09.184Z,10.00
2019-04-16T15:02:49.705Z,9.33
2019-04-16T15:05:24.466Z,9.20
2019-04-16T15:08:13.588Z,9.77
2019-04-16T15:11:04.368Z,10.20
2019-04-16T15:13:36.106Z,11.67
2019-04-16T15:16:13.823Z,12.37
2019-04-16T15:18:46.452Z,11.60
2019-04-16T15:21:24.868Z,12.17
2019-04-16T15:24:12.634Z,12.40
2019-04-16T15:26:52.160Z,11.83
2019-04-16T15:29:25.361Z,12.70
2019-04-16T15:32:04.100Z,11.00
2019-04-16T15:34:41.948Z,12.83
2019-04-16T15:37:10.852Z,11.90
2019-04-16T15:39:42.601Z,11.87
2019-04-16T15:42:20.860Z,11.90
2019-04-16T15:44:56.117Z,11.60
2019-04-16T15:47:32.060Z,12.10
2019-04-16T15:50:02.750Z,11.80
2019-04-16T15:52:34.306Z,12.17
2019-04-16T15:55:24.404Z,10.97
2019-04-16T15:58:14.697Z,9.03
2019-04-16T16:00:52.200Z,9.27
2019-04-16T16:03:30.870Z,8.93
2019-04-16T16:06:12.517Z,8.57
2019-04-16T16:08:51.799Z,8.47
2019-04-16T16:11:44.434Z,7.67
2019-04-16T16:14:17.053Z,7.03
2019-04-16T16:16:50.797Z,8.00
2019-04-16T16:19:21.426Z,8.63
2019-04-16T16:21:53.093Z,7.83
2019-04-16T16:24:24.680Z,8.77
2019-04-16T16:26:54.826Z,8.53
2019-04-16T16:29:25.026Z,8.70
2019-04-16T16:31:56.157Z,8.13
2019-04-16T16:34:27.855Z,8.57
2019-04-16T16:36:58.685Z,8.60
2019-04-16T16:39:31.483Z,9.33
2019-04-16T16:42:02.816Z,8.40
2019-04-16T16:44:32.714Z,8.80
2019-04-16T16:47:04.159Z,8.27
2019-04-16T16:49:34.909Z,8.17
2019-04-16T16:52:10.106Z,7.60
2019-04-16T16:54:42.134Z,8.07
2019-04-16T16:57:19.173Z,8.33
2019-04-16T17:00:01.990Z,7.57
2019-04-16T17:02:40.645Z,8.20
2019-04-16T17:05:12.513Z,8.00
2019-04-16T17:07:43.716Z,9.13
2019-04-16T17:10:15.282Z,8.13
2019-04-16T17:12:47.391Z,7.63
2019-04-16T17:15:19.186Z,8.23
2019-04-16T17:17:50.798Z,8.40
2019-04-16T17:20:21.438Z,7.60
2019-04-16T17:22:51.497Z,7.87
2019-04-16T17:25:35.544Z,7.30
2019-04-16T17:27:56.366Z,6.10
2019-04-16T17:30:27.433Z,7.00
2019-04-16T17:32:59.225Z,6.53
2019-04-16T17:35:30.299Z,6.57
2019-04-16T17:38:03.169Z,6.37
2019-04-16T17:40:51.095Z,6.33
2019-04-16T17:43:22.093Z,5.90
2019-04-16T17:45:57.141Z,5.67
2019-04-16T17:48:31.621Z,5.93
2019-04-16T17:51:06.413Z,5.03
2019-04-16T17:53:39.003Z,5.40
2019-04-16T17:56:27.045Z,5.73
2019-04-16T17:59:05.724Z,4.90
2019-04-16T18:01:53.146Z,4.60
2019-04-16T18:04:25.513Z,4.90
2019-04-16T18:07:13.697Z,4.87
2019-04-16T18:09:48.262Z,3.70
2019-04-16T18:12:38.670Z,4.70
2019-04-16T18:15:19.392Z,4.10
2019-04-16T18:18:06.712Z,3.57
2019-04-16T18:20:56.709Z,4.13
2019-04-16T18:23:33.906Z,3.80
2019-04-16T18:26:22.747Z,3.40
2019-04-16T18:29:11.945Z,3.67
2019-04-16T18:31:46.201Z,3.47
2019-04-16T18:34:40.259Z,3.90
2019-04-16T18:37:22.533Z,3.70
2019-04-16T18:40:00.873Z,3.37
2019-04-16T18:42:50.893Z,3.27
2019-04-16T18:45:24.870Z,3.40
2019-04-16T18:48:04.964Z,3.43
2019-04-16T18:50:31.941Z,3.20
2019-04-16T18:53:02.700Z,3.00
2019-04-16T18:55:33.369Z,3.27
2019-04-16T18:58:04.102Z,3.30
2019-04-16T19:00:36.979Z,3.20
2019-04-16T19:03:07.513Z,3.17
2019-04-16T19:05:39.210Z,3.20
2019-04-16T19:08:09.166Z,3.50
2019-04-16T19:10:40.566Z,3.30
2019-04-16T19:13:11.712Z,3.23
2019-04-16T19:15:44.267Z,3.47
2019-04-16T19:18:19.635Z,2.93
2019-04-16T19:20:51.458Z,3.03
2019-04-16T19:23:21.550Z,3.00
2019-04-16T19:25:55.344Z,3.10
2019-04-16T19:28:25.289Z,2.50
2019-04-16T19:30:56.550Z,2.70
2019-04-16T19:33:26.485Z,2.93
2019-04-16T19:35:57.549Z,2.40
2019-04-16T19:38:27.397Z,2.80
2019-04-16T19:40:58.417Z,2.60
2019-04-16T19:43:28.622Z,2.33
2019-04-16T19:46:02.422Z,10.63
2019-04-16T19:48:35.895Z,3.30
2019-04-16T19:51:07.658Z,2.70
2019-04-16T19:53:41.541Z,2.90
2019-04-16T19:56:11.386Z,2.70
2019-04-16T19:58:44.310Z,2.63
2019-04-16T20:01:13.504Z,2.43
2019-04-16T20:03:45.376Z,2.90
2019-04-16T20:06:16.577Z,2.67
2019-04-16T20:08:48.177Z,3.20
2019-04-16T20:11:21.413Z,3.37
2019-04-16T20:13:50.293Z,2.70
2019-04-16T20:16:20.213Z,2.10
2019-04-16T20:18:51.571Z,2.80
2019-04-16T20:21:22.781Z,2.50
2019-04-16T20:23:54.986Z,2.83
2019-04-16T20:26:29.332Z,2.70
2019-04-16T20:29:00.392Z,3.50
2019-04-16T20:31:31.504Z,2.80
2019-04-16T20:34:01.713Z,3.10
2019-04-16T20:36:31.482Z,3.00
2019-04-16T20:39:02.605Z,2.57
2019-04-16T20:41:33.373Z,2.70
2019-04-16T20:44:08.447Z,3.03
2019-04-16T20:46:37.110Z,5.03
2019-04-16T20:49:10.516Z,4.13
2019-04-16T20:51:39.781Z,10.70
2019-04-16T20:54:13.777Z,4.60
2019-04-16T20:56:44.953Z,3.70
2019-04-16T20:59:17.485Z,2.63
2019-04-16T21:01:47.761Z,3.30
2019-04-16T21:04:18.589Z,2.70
2019-04-16T21:06:49.605Z,2.60
2019-04-16T21:09:19.918Z,3.07
2019-04-16T21:11:52.684Z,2.90
2019-04-16T21:14:24.406Z,2.47
2019-04-16T21:16:55.834Z,3.00
2019-04-16T21:19:28.533Z,2.77
2019-04-16T21:22:01.367Z,2.90
2019-04-16T21:24:39.133Z,2.70
2019-04-16T21:27:09.791Z,2.70
2019-04-16T21:29:38.960Z,2.87
2019-04-16T21:32:16.687Z,2.60
2019-04-16T21:34:44.974Z,2.77
2019-04-16T21:37:26.362Z,3.07
2019-04-16T21:40:00.645Z,2.67
2019-04-16T21:42:34.582Z,2.40
2019-04-16T21:45:03.517Z,2.90
2019-04-16T21:47:36.237Z,2.70
2019-04-16T21:50:08.938Z,2.60
2019-04-16T21:52:38.718Z,3.07
2019-04-16T21:55:09.941Z,2.90
2019-04-16T21:57:42.879Z,2.77
2019-04-16T22:00:14.950Z,2.80
2019-04-16T22:02:45.871Z,2.40
2019-04-16T22:05:17.860Z,2.73
2019-04-16T22:07:47.937Z,3.00
2019-04-16T22:10:18.673Z,3.03
2019-04-16T22:12:48.825Z,3.10
2019-04-16T22:15:18.729Z,2.80
2019-04-16T22:17:49.442Z,3.33
2019-04-16T22:20:20.389Z,3.50
2019-04-16T22:22:51.421Z,3.40
2019-04-16T22:25:23.694Z,2.83
2019-04-16T22:27:54.615Z,3.40
2019-04-16T22:30:25.579Z,3.10
2019-04-16T22:32:57.097Z,3.50
2019-04-16T22:35:31.826Z,3.60
2019-04-16T22:38:02.341Z,2.93
2019-04-16T22:40:51.617Z,3.10
2019-04-16T22:43:32.769Z,2.73
2019-04-16T22:46:14.483Z,3.20
2019-04-16T22:49:00.536Z,2.57
2019-04-16T22:51:33.014Z,3.40
2019-04-16T22:54:05.096Z,2.70
2019-04-16T22:56:43.142Z,3.10
2019-04-16T22:59:13.418Z,3.40
2019-04-16T23:01:46.159Z,3.00
2019-04-16T23:04:17.293Z,3.60
2019-04-16T23:06:48.504Z,3.33
2019-04-16T23:09:19.895Z,3.27
2019-04-16T23:11:52.680Z,3.27
2019-04-16T23:14:22.025Z,3.70
2019-04-16T23:16:54.138Z,3.30
2019-04-16T23:19:24.878Z,3.53
2019-04-16T23:21:55.541Z,3.80
2019-04-16T23:24:26.265Z,3.57
2019-04-16T23:26:57.364Z,3.47
2019-04-16T23:29:28.013Z,3.20
2019-04-16T23:31:58.961Z,3.03
2019-04-16T23:34:28.743Z,3.70
2019-04-16T23:36:58.906Z,3.53
2019-04-16T23:39:29.846Z,3.90
2019-04-16T23:42:02.286Z,3.43
2019-04-16T23:44:38.077Z,3.80
2019-04-16T23:47:21.741Z,3.20
2019-04-16T23:50:00.280Z,4.00
2019-04-16T23:52:35.442Z,3.53
2019-04-16T23:55:07.718Z,4.10
2019-04-16T23:57:53.634Z,3.53
